sensor_id;sensor_type;location;lat;lon;timestamp;pressure;altitude;pressure_sealevel;temperature
40199;BMP280;25906;43.536;26.068;2023-05-07T00:01:20;99217.72;;;12.11
40199;BMP280;25906;43.536;26.068;2023-05-07T00:04:06;99210.78;;;12.01
40199;BMP280;25906;43.536;26.068;2023-05-07T00:06:52;99214.41;;;12.07
40199;BMP280;25906;43.536;26.068;2023-05-07T00:09:38;99210.59;;;12.08
40199;BMP280;25906;43.536;26.068;2023-05-07T00:12:23;99216.63;;;12.09
40199;BMP280;25906;43.536;26.068;2023-05-07T00:15:09;99211.31;;;12.09
40199;BMP280;25906;43.536;26.068;2023-05-07T00:17:55;99211.47;;;12.18
40199;BMP280;25906;43.536;26.068;2023-05-07T00:20:40;99207.13;;;12.11
40199;BMP280;25906;43.536;26.068;2023-05-07T00:23:25;99210.16;;;12.10
40199;BMP280;25906;43.536;26.068;2023-05-07T00:26:11;99211.41;;;12.05
40199;BMP280;25906;43.536;26.068;2023-05-07T00:28:56;99209.78;;;11.95
40199;BMP280;25906;43.536;26.068;2023-05-07T00:31:42;99215.53;;;11.77
40199;BMP280;25906;43.536;26.068;2023-05-07T00:34:27;99209.31;;;11.68
40199;BMP280;25906;43.536;26.068;2023-05-07T00:37:12;99200.69;;;11.80
40199;BMP280;25906;43.536;26.068;2023-05-07T00:39:58;99197.88;;;11.54
40199;BMP280;25906;43.536;26.068;2023-05-07T00:42:44;99203.25;;;11.51
40199;BMP280;25906;43.536;26.068;2023-05-07T00:45:32;99200.59;;;11.51
40199;BMP280;25906;43.536;26.068;2023-05-07T00:48:18;99199.38;;;11.55
40199;BMP280;25906;43.536;26.068;2023-05-07T00:51:04;99189.59;;;11.52
40199;BMP280;25906;43.536;26.068;2023-05-07T00:53:49;99199.38;;;11.55
40199;BMP280;25906;43.536;26.068;2023-05-07T00:56:36;99189.94;;;11.38
40199;BMP280;25906;43.536;26.068;2023-05-07T00:59:21;99197.38;;;11.43
40199;BMP280;25906;43.536;26.068;2023-05-07T01:02:07;99184.28;;;11.36
40199;BMP280;25906;43.536;26.068;2023-05-07T01:04:52;99189.06;;;11.25
40199;BMP280;25906;43.536;26.068;2023-05-07T01:07:39;99195.38;;;11.15
40199;BMP280;25906;43.536;26.068;2023-05-07T01:10:26;99201.66;;;11.21
40199;BMP280;25906;43.536;26.068;2023-05-07T01:13:12;99194.13;;;11.20
40199;BMP280;25906;43.536;26.068;2023-05-07T01:15:58;99203.06;;;11.26
40199;BMP280;25906;43.536;26.068;2023-05-07T01:18:44;99200.31;;;11.13
40199;BMP280;25906;43.536;26.068;2023-05-07T01:21:33;99197.41;;;11.07
40199;BMP280;25906;43.536;26.068;2023-05-07T01:24:20;99193.44;;;10.99
40199;BMP280;25906;43.536;26.068;2023-05-07T01:27:05;99192.09;;;10.91
40199;BMP280;25906;43.536;26.068;2023-05-07T01:29:51;99203.59;;;10.65
40199;BMP280;25906;43.536;26.068;2023-05-07T01:32:48;99199.50;;;10.80
40199;BMP280;25906;43.536;26.068;2023-05-07T01:35:39;99193.97;;;10.91
40199;BMP280;25906;43.536;26.068;2023-05-07T01:38:26;99192.09;;;10.91
40199;BMP280;25906;43.536;26.068;2023-05-07T01:41:12;99194.44;;;10.86
40199;BMP280;25906;43.536;26.068;2023-05-07T01:43:58;99193.97;;;10.91
40199;BMP280;25906;43.536;26.068;2023-05-07T01:46:44;99193.22;;;10.90
40199;BMP280;25906;43.536;26.068;2023-05-07T01:49:30;99196.03;;;10.83
40199;BMP280;25906;43.536;26.068;2023-05-07T01:52:15;99200.13;;;10.68
40199;BMP280;25906;43.536;26.068;2023-05-07T01:55:01;99196.19;;;10.56
40199;BMP280;25906;43.536;26.068;2023-05-07T01:57:46;99191.28;;;10.75
40199;BMP280;25906;43.536;26.068;2023-05-07T02:00:31;99184.91;;;10.72
40199;BMP280;25906;43.536;26.068;2023-05-07T02:03:17;99181.16;;;10.70
40199;BMP280;25906;43.536;26.068;2023-05-07T02:06:03;99176.53;;;10.74
40199;BMP280;25906;43.536;26.068;2023-05-07T02:08:48;99173.22;;;10.70
40199;BMP280;25906;43.536;26.068;2023-05-07T02:11:34;99168.91;;;10.59
40199;BMP280;25906;43.536;26.068;2023-05-07T02:14:19;99171.41;;;10.67
40199;BMP280;25906;43.536;26.068;2023-05-07T02:17:05;99168.66;;;10.70
40199;BMP280;25906;43.536;26.068;2023-05-07T02:19:51;99169.91;;;10.66
40199;BMP280;25906;43.536;26.068;2023-05-07T02:22:36;99171.47;;;10.43
40199;BMP280;25906;43.536;26.068;2023-05-07T02:25:22;99165.56;;;10.55
40199;BMP280;25906;43.536;26.068;2023-05-07T02:28:07;99161.78;;;10.56
40199;BMP280;25906;43.536;26.068;2023-05-07T02:30:52;99166.66;;;10.58
40199;BMP280;25906;43.536;26.068;2023-05-07T02:33:38;99161.88;;;10.49
40199;BMP280;25906;43.536;26.068;2023-05-07T02:36:23;99162.72;;;10.46
40199;BMP280;25906;43.536;26.068;2023-05-07T02:39:08;99169.00;;;10.33
40199;BMP280;25906;43.536;26.068;2023-05-07T02:41:54;99167.44;;;10.16
40199;BMP280;25906;43.536;26.068;2023-05-07T02:44:39;99165.59;;;10.12
40199;BMP280;25906;43.536;26.068;2023-05-07T02:47:25;99167.44;;;10.16
40199;BMP280;25906;43.536;26.068;2023-05-07T02:50:13;99168.47;;;10.22
40199;BMP280;25906;43.536;26.068;2023-05-07T02:52:58;99177.91;;;10.23
40199;BMP280;25906;43.536;26.068;2023-05-07T02:55:44;99184.03;;;10.16
40199;BMP280;25906;43.536;26.068;2023-05-07T02:58:29;99165.19;;;10.14
40199;BMP280;25906;43.536;26.068;2023-05-07T03:01:14;99171.69;;;10.09
40199;BMP280;25906;43.536;26.068;2023-05-07T03:04:00;99170.81;;;10.16
40199;BMP280;25906;43.536;26.068;2023-05-07T03:06:45;99179.69;;;10.06
40199;BMP280;25906;43.536;26.068;2023-05-07T03:09:31;99177.16;;;9.99
40199;BMP280;25906;43.536;26.068;2023-05-07T03:12:16;99184.69;;;10.00
40199;BMP280;25906;43.536;26.068;2023-05-07T03:15:01;99183.56;;;9.78
40199;BMP280;25906;43.536;26.068;2023-05-07T03:17:47;99177.91;;;9.53
40199;BMP280;25906;43.536;26.068;2023-05-07T03:20:33;99171.69;;;9.40
40199;BMP280;25906;43.536;26.068;2023-05-07T03:23:18;99173.69;;;9.55
40199;BMP280;25906;43.536;26.068;2023-05-07T03:26:04;99175.53;;;9.82
40199;BMP280;25906;43.536;26.068;2023-05-07T03:28:49;99171.75;;;10.06
40199;BMP280;25906;43.536;26.068;2023-05-07T03:31:35;99177.91;;;10.23
40199;BMP280;25906;43.536;26.068;2023-05-07T03:34:20;99184.09;;;10.55
40199;BMP280;25906;43.536;26.068;2023-05-07T03:37:07;99181.41;;;10.95
40199;BMP280;25906;43.536;26.068;2023-05-07T03:39:52;99180.06;;;11.39
40199;BMP280;25906;43.536;26.068;2023-05-07T03:42:38;99188.44;;;11.37
40199;BMP280;25906;43.536;26.068;2023-05-07T03:45:23;99185.63;;;11.61
40199;BMP280;25906;43.536;26.068;2023-05-07T03:48:08;99189.03;;;12.06
40199;BMP280;25906;43.536;26.068;2023-05-07T03:50:56;99192.06;;;12.49
40199;BMP280;25906;43.536;26.068;2023-05-07T03:53:42;99193.81;;;12.81
40199;BMP280;25906;43.536;26.068;2023-05-07T03:56:27;99198.03;;;12.79
40199;BMP280;25906;43.536;26.068;2023-05-07T03:59:13;99193.69;;;12.85
40199;BMP280;25906;43.536;26.068;2023-05-07T04:01:59;99192.78;;;13.04
40199;BMP280;25906;43.536;26.068;2023-05-07T04:04:44;99189.88;;;13.11
40199;BMP280;25906;43.536;26.068;2023-05-07T04:07:29;99199.56;;;13.30
40199;BMP280;25906;43.536;26.068;2023-05-07T04:10:15;99204.13;;;13.17
40199;BMP280;25906;43.536;26.068;2023-05-07T04:13:00;99206.56;;;12.99
40199;BMP280;25906;43.536;26.068;2023-05-07T04:15:46;99203.50;;;13.13
40199;BMP280;25906;43.536;26.068;2023-05-07T04:18:31;99208.59;;;13.20
40199;BMP280;25906;43.536;26.068;2023-05-07T04:21:20;99207.94;;;13.41
40199;BMP280;25906;43.536;26.068;2023-05-07T04:24:06;99220.88;;;13.65
40199;BMP280;25906;43.536;26.068;2023-05-07T04:26:52;99214.97;;;13.82
40199;BMP280;25906;43.536;26.068;2023-05-07T04:29:37;99215.50;;;13.90
40199;BMP280;25906;43.536;26.068;2023-05-07T04:32:27;99220.81;;;13.90
40199;BMP280;25906;43.536;26.068;2023-05-07T04:35:14;99220.97;;;13.86
40199;BMP280;25906;43.536;26.068;2023-05-07T04:37:59;99221.28;;;13.76
40199;BMP280;25906;43.536;26.068;2023-05-07T04:40:45;99230.25;;;14.03
40199;BMP280;25906;43.536;26.068;2023-05-07T04:43:31;99223.41;;;14.02
40199;BMP280;25906;43.536;26.068;2023-05-07T04:46:16;99222.31;;;14.13
40199;BMP280;25906;43.536;26.068;2023-05-07T04:49:02;99219.97;;;14.15
40199;BMP280;25906;43.536;26.068;2023-05-07T04:51:48;99218.50;;;14.35
40199;BMP280;25906;43.536;26.068;2023-05-07T04:54:33;99223.38;;;14.59
40199;BMP280;25906;43.536;26.068;2023-05-07T04:57:19;99227.44;;;14.50
40199;BMP280;25906;43.536;26.068;2023-05-07T05:00:05;99234.31;;;14.61
40199;BMP280;25906;43.536;26.068;2023-05-07T05:02:50;99221.94;;;15.06
40199;BMP280;25906;43.536;26.068;2023-05-07T05:05:36;99232.66;;;15.25
40199;BMP280;25906;43.536;26.068;2023-05-07T05:08:21;99230.03;;;14.94
40199;BMP280;25906;43.536;26.068;2023-05-07T05:11:06;99233.09;;;15.05
40199;BMP280;25906;43.536;26.068;2023-05-07T05:13:52;99232.16;;;14.99
40199;BMP280;25906;43.536;26.068;2023-05-07T05:16:37;99231.34;;;15.29
40199;BMP280;25906;43.536;26.068;2023-05-07T05:19:23;99235.00;;;15.23
40199;BMP280;25906;43.536;26.068;2023-05-07T05:22:08;99233.75;;;15.27
40199;BMP280;25906;43.536;26.068;2023-05-07T05:24:53;99236.34;;;15.76
40199;BMP280;25906;43.536;26.068;2023-05-07T05:27:39;99224.88;;;15.94
40199;BMP280;25906;43.536;26.068;2023-05-07T05:30:24;99241.97;;;16.15
40199;BMP280;25906;43.536;26.068;2023-05-07T05:33:10;99242.06;;;16.38
40199;BMP280;25906;43.536;26.068;2023-05-07T05:35:55;99239.41;;;16.38
40199;BMP280;25906;43.536;26.068;2023-05-07T05:38:41;99234.28;;;16.58
40199;BMP280;25906;43.536;26.068;2023-05-07T05:41:26;99239.53;;;16.86
40199;BMP280;25906;43.536;26.068;2023-05-07T05:44:12;99246.63;;;16.98
40199;BMP280;25906;43.536;26.068;2023-05-07T05:46:57;99239.13;;;16.87
40199;BMP280;25906;43.536;26.068;2023-05-07T05:49:44;99240.25;;;16.95
40199;BMP280;25906;43.536;26.068;2023-05-07T05:52:29;99237.47;;;17.13
40199;BMP280;25906;43.536;26.068;2023-05-07T05:55:15;99239.00;;;17.29
40199;BMP280;25906;43.536;26.068;2023-05-07T05:58:01;99245.25;;;17.35
40199;BMP280;25906;43.536;26.068;2023-05-07T06:00:46;99253.38;;;17.41
40199;BMP280;25906;43.536;26.068;2023-05-07T06:03:33;99251.56;;;17.14
40199;BMP280;25906;43.536;26.068;2023-05-07T06:06:18;99246.28;;;17.29
40199;BMP280;25906;43.536;26.068;2023-05-07T06:09:04;99247.16;;;17.35
40199;BMP280;25906;43.536;26.068;2023-05-07T06:11:49;99245.91;;;17.45
40199;BMP280;25906;43.536;26.068;2023-05-07T06:14:35;99253.72;;;17.57
40199;BMP280;25906;43.536;26.068;2023-05-07T06:17:20;99254.41;;;17.43
40199;BMP280;25906;43.536;26.068;2023-05-07T06:20:06;99258.13;;;17.60
40199;BMP280;25906;43.536;26.068;2023-05-07T06:22:52;99252.09;;;17.74
40199;BMP280;25906;43.536;26.068;2023-05-07T06:25:37;99254.66;;;17.69
40199;BMP280;25906;43.536;26.068;2023-05-07T06:28:23;99258.97;;;17.90
40199;BMP280;25906;43.536;26.068;2023-05-07T06:33:57;99254.91;;;18.09
40199;BMP280;25906;43.536;26.068;2023-05-07T06:36:44;99251.53;;;18.23
40199;BMP280;25906;43.536;26.068;2023-05-07T06:39:29;99252.41;;;18.35
40199;BMP280;25906;43.536;26.068;2023-05-07T06:42:15;99250.75;;;18.52
40199;BMP280;25906;43.536;26.068;2023-05-07T06:45:00;99251.56;;;18.58
40199;BMP280;25906;43.536;26.068;2023-05-07T06:47:46;99252.22;;;18.68
40199;BMP280;25906;43.536;26.068;2023-05-07T06:50:31;99256.16;;;19.07
40199;BMP280;25906;43.536;26.068;2023-05-07T06:53:16;99256.97;;;19.13
40199;BMP280;25906;43.536;26.068;2023-05-07T06:56:02;99256.34;;;19.18
40199;BMP280;25906;43.536;26.068;2023-05-07T06:58:47;99254.91;;;19.23
40199;BMP280;25906;43.536;26.068;2023-05-07T07:01:33;99251.69;;;19.39
40199;BMP280;25906;43.536;26.068;2023-05-07T07:04:18;99243.22;;;19.46
40199;BMP280;25906;43.536;26.068;2023-05-07T07:07:03;99257.53;;;19.58
40199;BMP280;25906;43.536;26.068;2023-05-07T07:09:49;99257.31;;;19.87
40199;BMP280;25906;43.536;26.068;2023-05-07T07:12:34;99256.22;;;19.73
40199;BMP280;25906;43.536;26.068;2023-05-07T07:15:20;99259.41;;;19.97
40199;BMP280;25906;43.536;26.068;2023-05-07T07:18:10;99263.44;;;20.13
40199;BMP280;25906;43.536;26.068;2023-05-07T07:20:55;99261.50;;;20.14
40199;BMP280;25906;43.536;26.068;2023-05-07T07:23:41;99256.72;;;20.29
40199;BMP280;25906;43.536;26.068;2023-05-07T07:26:26;99259.00;;;20.36
40199;BMP280;25906;43.536;26.068;2023-05-07T07:29:11;99264.25;;;20.25
40199;BMP280;25906;43.536;26.068;2023-05-07T07:31:57;99257.91;;;20.53
40199;BMP280;25906;43.536;26.068;2023-05-07T07:34:42;99267.09;;;20.47
40199;BMP280;25906;43.536;26.068;2023-05-07T07:37:28;99267.19;;;20.52
40199;BMP280;25906;43.536;26.068;2023-05-07T07:40:13;99268.03;;;20.70
40199;BMP280;25906;43.536;26.068;2023-05-07T07:42:59;99273.28;;;20.95
40199;BMP280;25906;43.536;26.068;2023-05-07T07:45:46;99266.88;;;20.82
40199;BMP280;25906;43.536;26.068;2023-05-07T07:48:31;99261.81;;;20.58
40199;BMP280;25906;43.536;26.068;2023-05-07T07:51:17;99271.47;;;20.76
40199;BMP280;25906;43.536;26.068;2023-05-07T07:54:02;99265.53;;;20.66
40199;BMP280;25906;43.536;26.068;2023-05-07T07:56:48;99265.66;;;20.88
40199;BMP280;25906;43.536;26.068;2023-05-07T07:59:33;99263.09;;;21.10
40199;BMP280;25906;43.536;26.068;2023-05-07T08:02:19;99270.47;;;21.21
40199;BMP280;25906;43.536;26.068;2023-05-07T08:05:04;99254.78;;;21.14
40199;BMP280;25906;43.536;26.068;2023-05-07T08:07:49;99254.75;;;21.08
40199;BMP280;25906;43.536;26.068;2023-05-07T08:10:38;99261.69;;;21.32
40199;BMP280;25906;43.536;26.068;2023-05-07T08:13:24;99253.97;;;21.83
40199;BMP280;25906;43.536;26.068;2023-05-07T08:16:09;99254.00;;;22.17
40199;BMP280;25906;43.536;26.068;2023-05-07T08:18:55;99252.03;;;22.06
40199;BMP280;25906;43.536;26.068;2023-05-07T08:21:40;99254.22;;;21.69
40199;BMP280;25906;43.536;26.068;2023-05-07T08:24:26;99247.84;;;22.05
40199;BMP280;25906;43.536;26.068;2023-05-07T08:27:11;99253.25;;;22.16
40199;BMP280;25906;43.536;26.068;2023-05-07T08:29:57;99244.91;;;22.31
40199;BMP280;25906;43.536;26.068;2023-05-07T08:32:42;99244.66;;;22.07
40199;BMP280;25906;43.536;26.068;2023-05-07T08:35:27;99242.94;;;21.87
40199;BMP280;25906;43.536;26.068;2023-05-07T08:38:13;99242.00;;;21.96
40199;BMP280;25906;43.536;26.068;2023-05-07T08:40:58;99239.53;;;21.81
40199;BMP280;25906;43.536;26.068;2023-05-07T08:43:47;99239.53;;;21.81
40199;BMP280;25906;43.536;26.068;2023-05-07T08:46:33;99249.34;;;22.12
40199;BMP280;25906;43.536;26.068;2023-05-07T08:49:20;99239.28;;;22.23
40199;BMP280;25906;43.536;26.068;2023-05-07T08:52:05;99241.72;;;22.21
40199;BMP280;25906;43.536;26.068;2023-05-07T08:54:51;99235.06;;;22.44
40199;BMP280;25906;43.536;26.068;2023-05-07T08:57:36;99235.59;;;22.32
40199;BMP280;25906;43.536;26.068;2023-05-07T09:00:22;99237.28;;;22.52
40199;BMP280;25906;43.536;26.068;2023-05-07T09:03:07;99229.44;;;22.48
40199;BMP280;25906;43.536;26.068;2023-05-07T09:05:53;99233.78;;;22.68
40199;BMP280;25906;43.536;26.068;2023-05-07T09:08:38;99231.84;;;22.57
40199;BMP280;25906;43.536;26.068;2023-05-07T09:11:24;99233.91;;;22.18
40199;BMP280;25906;43.536;26.068;2023-05-07T09:14:09;99238.72;;;22.58
40199;BMP280;25906;43.536;26.068;2023-05-07T09:16:56;99233.03;;;22.73
40199;BMP280;25906;43.536;26.068;2023-05-07T09:19:43;99228.56;;;22.92
40199;BMP280;25906;43.536;26.068;2023-05-07T09:22:31;99242.34;;;22.77
40199;BMP280;25906;43.536;26.068;2023-05-07T09:25:28;99221.28;;;23.16
40199;BMP280;25906;43.536;26.068;2023-05-07T09:28:13;99220.09;;;23.12
40199;BMP280;25906;43.536;26.068;2023-05-07T09:30:59;99217.16;;;22.58
40199;BMP280;25906;43.536;26.068;2023-05-07T09:33:44;99204.47;;;22.94
40199;BMP280;25906;43.536;26.068;2023-05-07T09:36:31;99208.22;;;22.80
40199;BMP280;25906;43.536;26.068;2023-05-07T09:39:17;99211.88;;;22.88
40199;BMP280;25906;43.536;26.068;2023-05-07T09:42:02;99209.06;;;22.52
40199;BMP280;25906;43.536;26.068;2023-05-07T09:44:48;99207.84;;;22.59
40199;BMP280;25906;43.536;26.068;2023-05-07T09:47:35;99202.72;;;22.39
40199;BMP280;25906;43.536;26.068;2023-05-07T09:50:27;99204.06;;;22.84
40199;BMP280;25906;43.536;26.068;2023-05-07T09:53:14;99196.75;;;22.63
40199;BMP280;25906;43.536;26.068;2023-05-07T09:56:00;99208.88;;;23.08
40199;BMP280;25906;43.536;26.068;2023-05-07T09:58:46;99197.84;;;22.95
40199;BMP280;25906;43.536;26.068;2023-05-07T10:01:32;99194.41;;;22.15
40199;BMP280;25906;43.536;26.068;2023-05-07T10:04:20;99192.59;;;22.67
40199;BMP280;25906;43.536;26.068;2023-05-07T10:07:06;99188.72;;;22.52
40199;BMP280;25906;43.536;26.068;2023-05-07T10:09:53;99186.63;;;22.80
40199;BMP280;25906;43.536;26.068;2023-05-07T10:12:40;99188.09;;;23.27
40199;BMP280;25906;43.536;26.068;2023-05-07T10:15:26;99182.03;;;23.51
40199;BMP280;25906;43.536;26.068;2023-05-07T10:18:13;99176.72;;;23.04
40199;BMP280;25906;43.536;26.068;2023-05-07T10:21:07;99178.75;;;23.28
40199;BMP280;25906;43.536;26.068;2023-05-07T10:23:58;99173.47;;;23.11
40199;BMP280;25906;43.536;26.068;2023-05-07T10:26:47;99170.59;;;23.39
40199;BMP280;25906;43.536;26.068;2023-05-07T10:32:55;99172.91;;;23.24
40199;BMP280;25906;43.536;26.068;2023-05-07T10:35:43;99170.84;;;23.36
40199;BMP280;25906;43.536;26.068;2023-05-07T10:38:30;99155.78;;;23.10
40199;BMP280;25906;43.536;26.068;2023-05-07T10:41:15;99166.63;;;23.40
40199;BMP280;25906;43.536;26.068;2023-05-07T10:44:03;99156.47;;;23.22
40199;BMP280;25906;43.536;26.068;2023-05-07T10:47:04;99150.97;;;23.33
40199;BMP280;25906;43.536;26.068;2023-05-07T10:52:35;99159.41;;;23.24
40199;BMP280;25906;43.536;26.068;2023-05-07T10:55:21;99150.41;;;23.10
40199;BMP280;25906;43.536;26.068;2023-05-07T10:58:29;99153.63;;;23.03
40199;BMP280;25906;43.536;26.068;2023-05-07T11:01:14;99151.31;;;22.78
40199;BMP280;25906;43.536;26.068;2023-05-07T11:04:15;99151.28;;;22.83
40199;BMP280;25906;43.536;26.068;2023-05-07T11:10:01;99157.44;;;22.84
40199;BMP280;25906;43.536;26.068;2023-05-07T11:12:50;99155.75;;;23.16
40199;BMP280;25906;43.536;26.068;2023-05-07T11:15:38;99155.16;;;22.93
40199;BMP280;25906;43.536;26.068;2023-05-07T11:18:23;99151.94;;;22.95
40199;BMP280;25906;43.536;26.068;2023-05-07T11:21:09;99146.31;;;22.93
40199;BMP280;25906;43.536;26.068;2023-05-07T11:23:55;99148.47;;;23.05
40199;BMP280;25906;43.536;26.068;2023-05-07T11:26:50;99146.41;;;22.82
40199;BMP280;25906;43.536;26.068;2023-05-07T11:29:36;99143.13;;;22.48
40199;BMP280;25906;43.536;26.068;2023-05-07T11:32:26;99133.22;;;22.62
40199;BMP280;25906;43.536;26.068;2023-05-07T11:35:12;99138.16;;;22.58
40199;BMP280;25906;43.536;26.068;2023-05-07T11:37:59;99141.16;;;22.43
40199;BMP280;25906;43.536;26.068;2023-05-07T11:40:52;99134.19;;;23.10
40199;BMP280;25906;43.536;26.068;2023-05-07T11:43:40;99124.94;;;23.36
40199;BMP280;25906;43.536;26.068;2023-05-07T11:46:43;99131.03;;;23.01
40199;BMP280;25906;43.536;26.068;2023-05-07T11:49:29;99124.81;;;23.23
40199;BMP280;25906;43.536;26.068;2023-05-07T11:52:16;99118.16;;;23.24
40199;BMP280;25906;43.536;26.068;2023-05-07T11:55:02;99116.56;;;23.04
40199;BMP280;25906;43.536;26.068;2023-05-07T11:57:49;99114.53;;;22.69
40199;BMP280;25906;43.536;26.068;2023-05-07T12:00:34;99113.69;;;22.91
40199;BMP280;25906;43.536;26.068;2023-05-07T12:03:20;99112.47;;;22.86
40199;BMP280;25906;43.536;26.068;2023-05-07T12:06:06;99110.28;;;22.85
40199;BMP280;25906;43.536;26.068;2023-05-07T12:08:53;99112.63;;;23.05
40199;BMP280;25906;43.536;26.068;2023-05-07T12:11:38;99113.44;;;22.48
40199;BMP280;25906;43.536;26.068;2023-05-07T12:14:27;99110.31;;;23.20
40199;BMP280;25906;43.536;26.068;2023-05-07T12:17:14;99108.50;;;23.34
40199;BMP280;25906;43.536;26.068;2023-05-07T12:20:00;99105.75;;;23.39
40199;BMP280;25906;43.536;26.068;2023-05-07T12:22:46;99095.88;;;23.47
40199;BMP280;25906;43.536;26.068;2023-05-07T12:25:37;99087.28;;;23.43
40199;BMP280;25906;43.536;26.068;2023-05-07T12:28:22;99088.94;;;23.22
40199;BMP280;25906;43.536;26.068;2023-05-07T12:31:16;99078.31;;;22.94
40199;BMP280;25906;43.536;26.068;2023-05-07T12:34:05;99082.78;;;22.92
40199;BMP280;25906;43.536;26.068;2023-05-07T12:36:50;99079.97;;;22.68
40199;BMP280;25906;43.536;26.068;2023-05-07T12:39:36;99081.66;;;22.76
40199;BMP280;25906;43.536;26.068;2023-05-07T12:42:21;99084.47;;;22.95
40199;BMP280;25906;43.536;26.068;2023-05-07T12:45:12;99083.56;;;22.29
40199;BMP280;25906;43.536;26.068;2023-05-07T12:48:01;99080.59;;;22.38
40199;BMP280;25906;43.536;26.068;2023-05-07T12:50:53;99079.94;;;22.21
40199;BMP280;25906;43.536;26.068;2023-05-07T12:53:42;99082.50;;;22.55
40199;BMP280;25906;43.536;26.068;2023-05-07T12:56:31;99082.56;;;22.38
40199;BMP280;25906;43.536;26.068;2023-05-07T12:59:17;99084.50;;;22.37
40199;BMP280;25906;43.536;26.068;2023-05-07T13:02:02;99080.19;;;22.70
40199;BMP280;25906;43.536;26.068;2023-05-07T13:04:48;99074.56;;;22.73
40199;BMP280;25906;43.536;26.068;2023-05-07T13:07:35;99074.44;;;22.90
40199;BMP280;25906;43.536;26.068;2023-05-07T13:10:26;99065.19;;;22.80
40199;BMP280;25906;43.536;26.068;2023-05-07T13:13:12;99064.38;;;23.20
40199;BMP280;25906;43.536;26.068;2023-05-07T13:15:58;99068.25;;;23.30
40199;BMP280;25906;43.536;26.068;2023-05-07T13:18:43;99066.06;;;23.29
40199;BMP280;25906;43.536;26.068;2023-05-07T13:21:30;99058.25;;;22.90
40199;BMP280;25906;43.536;26.068;2023-05-07T13:24:18;99056.53;;;22.87
40199;BMP280;25906;43.536;26.068;2023-05-07T13:27:05;99058.78;;;23.18
40199;BMP280;25906;43.536;26.068;2023-05-07T13:29:50;99062.47;;;23.69
40199;BMP280;25906;43.536;26.068;2023-05-07T13:32:35;99060.84;;;23.36
40199;BMP280;25906;43.536;26.068;2023-05-07T13:35:21;99064.53;;;23.03
40199;BMP280;25906;43.536;26.068;2023-05-07T13:38:07;99061.94;;;23.22
40199;BMP280;25906;43.536;26.068;2023-05-07T13:40:52;99058.59;;;23.10
40199;BMP280;25906;43.536;26.068;2023-05-07T13:43:37;99054.56;;;22.46
40199;BMP280;25906;43.536;26.068;2023-05-07T13:46:23;99052.84;;;22.90
40199;BMP280;25906;43.536;26.068;2023-05-07T13:49:08;99058.03;;;23.17
40199;BMP280;25906;43.536;26.068;2023-05-07T13:51:56;99047.63;;;23.27
40199;BMP280;25906;43.536;26.068;2023-05-07T13:54:42;99046.66;;;22.95
40199;BMP280;25906;43.536;26.068;2023-05-07T13:57:30;99047.81;;;23.05
40199;BMP280;25906;43.536;26.068;2023-05-07T14:00:15;99044.63;;;23.01
40199;BMP280;25906;43.536;26.068;2023-05-07T14:03:01;99053.53;;;22.96
40199;BMP280;25906;43.536;26.068;2023-05-07T14:05:47;99057.47;;;22.95
40199;BMP280;25906;43.536;26.068;2023-05-07T14:08:32;99053.78;;;22.98
40199;BMP280;25906;43.536;26.068;2023-05-07T14:11:18;99053.66;;;23.09
40199;BMP280;25906;43.536;26.068;2023-05-07T14:14:03;99060.06;;;22.76
40199;BMP280;25906;43.536;26.068;2023-05-07T14:16:49;99061.31;;;22.70
40199;BMP280;25906;43.536;26.068;2023-05-07T14:19:34;99057.28;;;22.46
40199;BMP280;25906;43.536;26.068;2023-05-07T14:22:20;99044.50;;;22.47
40199;BMP280;25906;43.536;26.068;2023-05-07T14:25:07;99051.34;;;22.59
40199;BMP280;25906;43.536;26.068;2023-05-07T14:27:54;99047.38;;;22.66
40199;BMP280;25906;43.536;26.068;2023-05-07T14:30:39;99053.69;;;22.74
40199;BMP280;25906;43.536;26.068;2023-05-07T14:33:25;99056.75;;;22.59
40199;BMP280;25906;43.536;26.068;2023-05-07T14:36:10;99055.56;;;22.38
40199;BMP280;25906;43.536;26.068;2023-05-07T14:38:56;99052.78;;;22.60
40199;BMP280;25906;43.536;26.068;2023-05-07T14:41:44;99056.75;;;22.59
40199;BMP280;25906;43.536;26.068;2023-05-07T14:44:29;99058.66;;;22.64
40199;BMP280;25906;43.536;26.068;2023-05-07T14:47:16;99047.63;;;22.97
40199;BMP280;25906;43.536;26.068;2023-05-07T14:50:01;99053.47;;;23.01
40199;BMP280;25906;43.536;26.068;2023-05-07T14:52:47;99056.06;;;22.88
40199;BMP280;25906;43.536;26.068;2023-05-07T14:55:34;99049.47;;;22.84
40199;BMP280;25906;43.536;26.068;2023-05-07T14:58:19;99050.97;;;23.14
40199;BMP280;25906;43.536;26.068;2023-05-07T15:01:05;99046.03;;;22.83
40199;BMP280;25906;43.536;26.068;2023-05-07T15:03:50;99050.38;;;22.92
40199;BMP280;25906;43.536;26.068;2023-05-07T15:06:36;99053.34;;;22.88
40199;BMP280;25906;43.536;26.068;2023-05-07T15:09:21;99051.53;;;22.61
40199;BMP280;25906;43.536;26.068;2023-05-07T15:12:07;99057.47;;;22.54
40199;BMP280;25906;43.536;26.068;2023-05-07T15:14:52;99050.72;;;22.31
40199;BMP280;25906;43.536;26.068;2023-05-07T15:17:38;99047.38;;;22.60
40199;BMP280;25906;43.536;26.068;2023-05-07T15:20:23;99046.13;;;22.61
40199;BMP280;25906;43.536;26.068;2023-05-07T15:23:08;99044.09;;;22.32
40199;BMP280;25906;43.536;26.068;2023-05-07T15:25:59;99035.13;;;22.07
40199;BMP280;25906;43.536;26.068;2023-05-07T15:28:44;99032.47;;;21.96
40199;BMP280;25906;43.536;26.068;2023-05-07T15:31:30;99032.72;;;21.98
40199;BMP280;25906;43.536;26.068;2023-05-07T15:34:16;99025.69;;;21.73
40199;BMP280;25906;43.536;26.068;2023-05-07T15:37:01;99025.16;;;21.85
40199;BMP280;25906;43.536;26.068;2023-05-07T15:39:47;99018.56;;;21.81
40199;BMP280;25906;43.536;26.068;2023-05-07T15:42:33;99019.78;;;21.85
40199;BMP280;25906;43.536;26.068;2023-05-07T15:45:18;99018.78;;;21.88
40199;BMP280;25906;43.536;26.068;2023-05-07T15:48:04;99019.03;;;21.85
40199;BMP280;25906;43.536;26.068;2023-05-07T15:50:49;99017.56;;;21.84
40199;BMP280;25906;43.536;26.068;2023-05-07T15:53:35;99017.28;;;21.93
40199;BMP280;25906;43.536;26.068;2023-05-07T15:56:21;99012.41;;;21.86